createdAt,value
2018-01-05T00:00:07.588Z,99186.66
2018-01-05T00:02:36.184Z,99192.53
2018-01-05T00:05:08.128Z,99196.98
2018-01-05T00:07:36.476Z,99189.64
2018-01-05T00:10:06.385Z,99191.70
2018-01-05T00:12:34.669Z,99186.89
2018-01-05T00:15:06.244Z,99180.14
2018-01-05T00:17:34.524Z,99190.28
2018-01-05T00:20:07.476Z,99195.19
2018-01-05T00:22:35.786Z,99196.75
2018-01-05T00:25:07.408Z,99200.28
2018-01-05T00:27:35.684Z,99197.33
2018-01-05T00:30:07.036Z,99201.38
2018-01-05T00:32:35.430Z,99195.24
2018-01-05T00:35:07.543Z,99196.33
2018-01-05T00:37:35.813Z,99198.23
2018-01-05T00:40:06.419Z,99199.88
2018-01-05T00:42:34.695Z,99200.47
2018-01-05T00:45:09.936Z,99191.47
2018-01-05T00:47:38.240Z,99190.71
2018-01-05T00:50:06.539Z,99174.94
2018-01-05T00:52:34.831Z,99184.45
2018-01-05T00:55:10.208Z,99187.91
2018-01-05T00:57:38.488Z,99179.48
2018-01-05T01:00:06.779Z,99203.77
2018-01-05T01:02:35.281Z,99204.52
2018-01-05T01:05:07.402Z,99205.60
2018-01-05T01:07:35.666Z,99202.05
2018-01-05T01:10:07.976Z,99214.94
2018-01-05T01:12:36.273Z,99205.28
2018-01-05T01:15:06.421Z,99198.48
2018-01-05T01:17:34.699Z,99202.05
2018-01-05T01:20:06.889Z,99199.55
2018-01-05T01:22:35.178Z,99192.53
2018-01-05T01:25:06.464Z,99188.50
2018-01-05T01:27:34.729Z,99185.02
2018-01-05T01:30:09.998Z,99172.46
2018-01-05T01:32:38.279Z,99163.14
2018-01-05T01:35:06.570Z,99171.98
2018-01-05T01:37:34.894Z,99160.58
2018-01-05T01:40:06.455Z,99178.91
2018-01-05T01:42:34.726Z,99179.64
2018-01-05T01:45:06.793Z,99194.50
2018-01-05T01:47:35.075Z,99189.39
2018-01-05T01:50:07.522Z,99185.25
2018-01-05T01:52:35.832Z,99176.19
2018-01-05T01:55:07.184Z,99157.11
2018-01-05T01:57:35.733Z,99168.99
2018-01-05T02:00:07.889Z,99171.14
2018-01-05T02:02:36.186Z,99167.25
2018-01-05T02:05:07.404Z,99163.95
2018-01-05T02:07:35.714Z,99159.92
2018-01-05T02:10:06.787Z,99159.27
2018-01-05T02:12:35.058Z,99155.95
2018-01-05T02:15:06.796Z,99152.64
2018-01-05T02:17:35.070Z,99149.35
2018-01-05T02:20:08.993Z,99134.48
2018-01-05T02:22:37.273Z,99122.84
2018-01-05T02:25:06.916Z,99115.92
2018-01-05T02:27:35.445Z,99119.38
2018-01-05T02:30:08.207Z,99124.92
2018-01-05T02:32:36.500Z,99132.18
2018-01-05T02:35:09.764Z,99127.62
2018-01-05T02:37:38.033Z,99138.35
2018-01-05T02:40:07.270Z,99133.67
2018-01-05T02:42:36.649Z,99137.70
2018-01-05T02:45:05.946Z,99127.05
2018-01-05T02:47:34.256Z,99125.33
2018-01-05T02:50:06.337Z,99117.39
2018-01-05T02:52:35.254Z,99112.45
2018-01-05T02:55:07.404Z,99102.62
2018-01-05T02:57:35.742Z,99084.20
2018-01-05T03:00:05.861Z,99068.63
2018-01-05T03:02:34.154Z,99064.47
2018-01-05T03:05:05.589Z,99080.59
2018-01-05T03:07:34.066Z,99073.64
2018-01-05T03:10:05.492Z,99071.44
2018-01-05T03:12:33.960Z,99071.27
2018-01-05T03:15:06.165Z,99072.27
2018-01-05T03:17:34.448Z,99083.23
2018-01-05T03:20:06.499Z,99049.22
2018-01-05T03:22:35.476Z,99077.52
2018-01-05T03:25:07.076Z,99080.73
2018-01-05T03:27:35.347Z,99049.36
2018-01-05T03:30:06.751Z,99076.95
2018-01-05T03:32:35.030Z,99084.55
2018-01-05T03:35:06.427Z,99084.28
2018-01-05T03:37:34.833Z,99063.64
2018-01-05T03:40:05.838Z,99064.08
2018-01-05T03:42:34.106Z,99045.75
2018-01-05T03:45:05.576Z,99030.34
2018-01-05T03:47:33.876Z,99034.63
2018-01-05T03:50:07.364Z,99038.42
2018-01-05T03:52:35.641Z,99021.26
2018-01-05T03:55:05.587Z,99024.31
2018-01-05T03:57:33.853Z,99019.75
2018-01-05T04:00:06.015Z,99016.63
2018-01-05T04:02:34.331Z,99022.55
2018-01-05T04:05:05.744Z,99024.04
2018-01-05T04:07:34.056Z,99026.11
2018-01-05T04:10:05.652Z,99014.71
2018-01-05T04:12:33.946Z,99009.85
2018-01-05T04:15:09.301Z,99004.57
2018-01-05T04:17:37.577Z,99015.19
2018-01-05T04:20:06.408Z,99015.28
2018-01-05T04:22:34.717Z,99018.58
2018-01-05T04:25:06.764Z,99017.77
2018-01-05T04:27:35.264Z,99011.74
2018-01-05T04:30:06.868Z,99009.02
2018-01-05T04:32:35.213Z,99004.02
2018-01-05T04:35:06.446Z,99004.19
2018-01-05T04:37:34.960Z,99005.42
2018-01-05T04:40:07.008Z,99001.29
2018-01-05T04:42:35.278Z,99003.29
2018-01-05T04:45:06.492Z,98991.79
2018-01-05T04:47:34.761Z,98994.17
2018-01-05T04:50:06.693Z,98996.08
2018-01-05T04:52:34.997Z,99007.13
2018-01-05T04:55:06.628Z,99007.65
2018-01-05T04:57:34.956Z,99003.91
2018-01-05T05:00:06.545Z,99006.39
2018-01-05T05:02:34.841Z,99013.48
2018-01-05T05:05:06.343Z,99019.00
2018-01-05T05:07:34.789Z,99019.13
2018-01-05T05:10:05.669Z,99014.94
2018-01-05T05:12:33.957Z,99015.72
2018-01-05T05:15:07.809Z,99022.20
2018-01-05T05:17:36.096Z,99024.97
2018-01-05T05:20:07.565Z,99027.61
2018-01-05T05:22:35.862Z,99032.06
2018-01-05T05:25:07.096Z,99036.00
2018-01-05T05:27:35.476Z,99039.55
2018-01-05T05:30:07.640Z,99033.35
2018-01-05T05:32:36.408Z,99044.83
2018-01-05T05:35:06.563Z,99037.73
2018-01-05T05:37:34.859Z,99033.88
2018-01-05T05:40:06.628Z,99042.46
2018-01-05T05:42:34.907Z,99034.06
2018-01-05T05:45:05.740Z,99035.33
2018-01-05T05:47:34.033Z,99033.42
2018-01-05T05:50:09.049Z,99036.12
2018-01-05T05:52:37.537Z,99035.23
2018-01-05T05:55:06.009Z,99044.10
2018-01-05T05:57:34.390Z,99047.08
2018-01-05T06:00:06.558Z,99054.70
2018-01-05T06:02:34.856Z,99056.50
2018-01-05T06:05:05.880Z,99058.41
2018-01-05T06:07:34.469Z,99065.23
2018-01-05T06:10:05.983Z,99070.45
2018-01-05T06:12:34.447Z,99069.37
2018-01-05T06:15:05.728Z,99064.81
2018-01-05T06:17:34.009Z,99062.59
2018-01-05T06:20:09.340Z,99063.48
2018-01-05T06:22:37.636Z,99073.86
2018-01-05T06:25:05.942Z,99076.25
2018-01-05T06:27:34.218Z,99078.41
2018-01-05T06:30:05.583Z,99077.30
2018-01-05T06:32:34.244Z,99086.77
2018-01-05T06:35:09.386Z,99087.45
2018-01-05T06:37:37.669Z,99094.03
2018-01-05T06:40:05.939Z,99100.20
2018-01-05T06:42:34.221Z,99097.85
2018-01-05T06:45:09.332Z,99091.09
2018-01-05T06:47:37.607Z,99086.39
2018-01-05T06:50:05.924Z,99085.23
2018-01-05T06:52:34.192Z,99098.03
2018-01-05T06:55:05.526Z,99096.36
2018-01-05T06:57:33.889Z,99095.45
2018-01-05T07:00:05.682Z,99088.36
2018-01-05T07:02:34.042Z,99097.45
2018-01-05T07:05:06.184Z,99104.13
2018-01-05T07:07:34.485Z,99112.33
2018-01-05T07:10:06.450Z,99105.45
2018-01-05T07:12:34.723Z,99106.42
2018-01-05T07:15:06.426Z,99110.66
2018-01-05T07:17:34.722Z,99116.58
2018-01-05T07:20:06.021Z,99106.73
2018-01-05T07:22:34.322Z,99117.58
2018-01-05T07:25:05.670Z,99120.71
2018-01-05T07:27:34.847Z,99130.40
2018-01-05T07:30:07.025Z,99132.30
2018-01-05T07:32:35.322Z,99136.02
2018-01-05T07:35:06.803Z,99134.25
2018-01-05T07:37:35.089Z,99136.02
2018-01-05T07:40:05.831Z,99134.95
2018-01-05T07:42:34.102Z,99139.70
2018-01-05T07:45:05.557Z,99145.16
2018-01-05T07:47:33.894Z,99145.73
2018-01-05T07:50:08.906Z,99147.41
2018-01-05T07:52:37.168Z,99145.28
2018-01-05T07:55:05.820Z,99154.22
2018-01-05T07:57:34.088Z,99147.50
2018-01-05T08:00:06.243Z,99153.67
2018-01-05T08:02:34.703Z,99161.35
2018-01-05T08:05:05.964Z,99165.22
2018-01-05T08:07:34.235Z,99185.33
2018-01-05T08:10:09.412Z,99190.72
2018-01-05T08:12:37.752Z,99205.95
2018-01-05T08:15:06.019Z,99213.80
2018-01-05T08:17:34.318Z,99216.14
2018-01-05T08:20:05.665Z,99198.78
2018-01-05T08:22:33.957Z,99184.13
2018-01-05T08:25:05.312Z,99177.16
2018-01-05T08:27:33.617Z,99184.36
2018-01-05T08:30:08.270Z,99185.01
2018-01-05T08:32:36.609Z,99184.13
2018-01-05T08:35:06.441Z,99191.08
2018-01-05T08:37:34.945Z,99190.17
2018-01-05T08:40:07.093Z,99195.97
2018-01-05T08:42:35.382Z,99201.17
2018-01-05T08:45:06.832Z,99201.23
2018-01-05T08:47:35.149Z,99208.59
2018-01-05T08:50:05.904Z,99214.22
2018-01-05T08:52:34.165Z,99218.60
2018-01-05T08:55:05.548Z,99215.80
2018-01-05T08:57:34.102Z,99205.86
2018-01-05T09:00:05.650Z,99201.21
2018-01-05T09:02:34.323Z,99203.44
2018-01-05T09:05:09.422Z,99205.99
2018-01-05T09:07:37.701Z,99205.25
2018-01-05T09:10:05.987Z,99202.80
2018-01-05T09:12:34.260Z,99205.92
2018-01-05T09:15:09.299Z,99213.47
2018-01-05T09:17:37.735Z,99212.20
2018-01-05T09:20:06.010Z,99204.80
2018-01-05T09:22:34.393Z,99212.20
2018-01-05T09:25:06.145Z,99212.44
2018-01-05T09:27:34.430Z,99215.23
2018-01-05T09:30:05.734Z,99212.36
2018-01-05T09:32:34.033Z,99202.52
2018-01-05T09:35:05.492Z,99219.58
2018-01-05T09:37:33.770Z,99218.05
2018-01-05T09:40:07.081Z,99222.48
2018-01-05T09:42:35.345Z,99218.47
2018-01-05T09:45:06.661Z,99216.34
2018-01-05T09:47:34.932Z,99219.98
2018-01-05T09:50:07.073Z,99218.30
2018-01-05T09:52:35.336Z,99213.27
2018-01-05T09:55:06.680Z,99209.98
2018-01-05T09:57:34.975Z,99206.48
2018-01-05T10:00:06.506Z,99216.98
2018-01-05T10:02:34.774Z,99205.89
2018-01-05T10:05:10.578Z,99210.98
2018-01-05T10:07:38.852Z,99210.63
2018-01-05T10:10:07.151Z,99213.58
2018-01-05T10:12:35.655Z,99216.55
2018-01-05T10:15:07.776Z,99217.58
2018-01-05T10:17:36.053Z,99230.13
2018-01-05T10:20:05.924Z,99230.56
2018-01-05T10:22:34.233Z,99235.27
2018-01-05T10:25:06.276Z,99230.80
2018-01-05T10:27:34.971Z,99227.84
2018-01-05T10:30:07.071Z,99227.80
2018-01-05T10:32:35.360Z,99223.65
2018-01-05T10:35:06.645Z,99227.62
2018-01-05T10:37:34.953Z,99224.86
2018-01-05T10:40:06.938Z,99209.44
2018-01-05T10:42:35.237Z,99204.12
2018-01-05T10:45:05.958Z,99197.02
2018-01-05T10:47:34.255Z,99187.11
2018-01-05T10:50:08.288Z,99185.52
2018-01-05T10:52:36.557Z,99185.24
2018-01-05T10:55:06.472Z,99192.20
2018-01-05T10:57:34.721Z,99188.16
2018-01-05T11:00:08.674Z,99198.31
2018-01-05T11:02:37.083Z,99196.45
2018-01-05T11:05:06.268Z,99199.47
2018-01-05T11:07:34.564Z,99191.03
2018-01-05T11:10:06.275Z,99189.12
2018-01-05T11:12:34.577Z,99189.39
2018-01-05T11:15:08.740Z,99194.91
2018-01-05T11:17:43.029Z,99191.35
2018-01-05T11:20:17.902Z,99196.05
2018-01-05T11:22:52.032Z,99197.87
2018-01-05T11:25:20.313Z,99188.51
2018-01-05T11:27:48.593Z,99195.36
2018-01-05T11:30:17.057Z,99193.63
2018-01-05T11:32:45.620Z,99199.47
2018-01-05T11:35:13.954Z,99202.34
2018-01-05T11:37:42.248Z,99199.42
2018-01-05T11:40:10.544Z,99194.66
2018-01-05T11:42:38.840Z,99189.66
2018-01-05T11:45:07.116Z,99195.86
2018-01-05T11:47:35.938Z,99201.84
2018-01-05T11:50:07.552Z,99196.17
2018-01-05T11:52:35.817Z,99204.88
2018-01-05T11:55:08.152Z,99204.19
2018-01-05T11:57:36.434Z,99206.03
2018-01-05T12:00:06.359Z,99213.98
2018-01-05T12:02:34.625Z,99209.54
2018-01-05T12:05:08.573Z,99206.63
2018-01-05T12:07:36.852Z,99205.78
2018-01-05T12:10:07.070Z,99193.95
2018-01-05T12:12:35.352Z,99178.75
2018-01-05T12:15:06.965Z,99178.17
2018-01-05T12:17:35.262Z,99185.56
2018-01-05T12:20:07.532Z,99190.38
2018-01-05T12:22:35.838Z,99192.27
2018-01-05T12:25:07.980Z,99183.46
2018-01-05T12:27:36.260Z,99171.58
2018-01-05T12:30:07.465Z,99158.21
2018-01-05T12:32:35.766Z,99160.66
2018-01-05T12:35:06.988Z,99160.42
2018-01-05T12:37:35.278Z,99157.16
2018-01-05T12:40:06.086Z,99166.98
2018-01-05T12:42:34.358Z,99155.90
2018-01-05T12:45:08.415Z,99156.06
2018-01-05T12:47:36.689Z,99149.44
2018-01-05T12:50:06.459Z,99154.37
2018-01-05T12:52:34.701Z,99163.80
2018-01-05T12:55:08.664Z,99159.72
2018-01-05T12:57:36.965Z,99152.16
2018-01-05T13:00:06.500Z,99153.95
2018-01-05T13:02:35.047Z,99159.75
2018-01-05T13:05:07.456Z,99176.11
2018-01-05T13:07:36.129Z,99177.85
2018-01-05T13:10:07.862Z,99184.74
2018-01-05T13:12:36.138Z,99187.08
2018-01-05T13:15:09.777Z,99189.57
2018-01-05T13:17:38.049Z,99196.99
2018-01-05T13:20:06.349Z,99207.22
2018-01-05T13:22:34.659Z,99215.80
2018-01-05T13:25:06.153Z,99216.11
2018-01-05T13:27:34.433Z,99209.73
2018-01-05T13:30:07.178Z,99194.45
2018-01-05T13:32:35.685Z,99191.50
2018-01-05T13:35:07.718Z,99195.73
2018-01-05T13:37:36.053Z,99197.58
2018-01-05T13:40:07.900Z,99197.37
2018-01-05T13:42:36.970Z,99213.64
2018-01-05T13:45:06.885Z,99216.25
2018-01-05T13:47:35.177Z,99228.42
2018-01-05T13:50:07.331Z,99232.63
2018-01-05T13:52:36.164Z,99230.65
2018-01-05T13:55:07.814Z,99240.69
2018-01-05T13:57:36.495Z,99236.91
2018-01-05T14:00:06.572Z,99230.61
2018-01-05T14:02:34.847Z,99223.23
2018-01-05T14:05:06.972Z,99223.35
2018-01-05T14:07:35.396Z,99231.19
2018-01-05T14:10:07.448Z,99223.81
2018-01-05T14:12:35.724Z,99228.99
2018-01-05T14:15:07.623Z,99222.25
2018-01-05T14:17:35.909Z,99217.00
2018-01-05T14:20:07.227Z,99227.06
2018-01-05T14:22:35.522Z,99234.89
2018-01-05T14:25:06.220Z,99241.50
2018-01-05T14:27:34.522Z,99238.34
2018-01-05T14:30:09.796Z,99247.97
2018-01-05T14:32:38.139Z,99248.87
2018-01-05T14:35:06.503Z,99245.25
2018-01-05T14:37:34.776Z,99244.83
2018-01-05T14:40:06.513Z,99245.09
2018-01-05T14:42:35.152Z,99242.09
2018-01-05T14:45:07.184Z,99227.81
2018-01-05T14:47:35.486Z,99253.52
2018-01-05T14:50:06.282Z,99245.83
2018-01-05T14:52:34.618Z,99249.90
2018-01-05T14:55:06.099Z,99250.73
2018-01-05T14:57:34.384Z,99250.67
2018-01-05T15:00:09.417Z,99248.50
2018-01-05T15:02:37.789Z,99249.98
2018-01-05T15:05:07.085Z,99247.44
2018-01-05T15:07:35.678Z,99236.78
2018-01-05T15:10:07.030Z,99232.16
2018-01-05T15:12:35.366Z,99234.58
2018-01-05T15:15:07.453Z,99229.70
2018-01-05T15:17:35.744Z,99229.86
2018-01-05T15:20:08.381Z,99232.59
2018-01-05T15:22:36.696Z,99232.59
2018-01-05T15:25:08.343Z,99236.91
2018-01-05T15:27:36.634Z,99237.48
2018-01-05T15:30:07.911Z,99232.77
2018-01-05T15:32:36.420Z,99253.35
2018-01-05T15:35:06.412Z,99247.73
2018-01-05T15:37:34.686Z,99246.34
2018-01-05T15:40:09.839Z,99248.75
2018-01-05T15:42:38.122Z,99251.15
2018-01-05T15:45:06.425Z,99262.47
2018-01-05T15:47:34.711Z,99255.50
2018-01-05T15:50:06.130Z,99275.77
2018-01-05T15:52:34.442Z,99263.69
2018-01-05T15:55:05.872Z,99266.59
2018-01-05T15:57:34.381Z,99269.33
2018-01-05T16:00:09.357Z,99271.88
2018-01-05T16:02:37.656Z,99271.64
2018-01-05T16:05:06.660Z,99273.02
2018-01-05T16:07:34.971Z,99278.08
2018-01-05T16:10:07.098Z,99281.31
2018-01-05T16:12:35.480Z,99273.05
2018-01-05T16:15:06.510Z,99283.69
2018-01-05T16:17:34.804Z,99288.98
2018-01-05T16:20:09.817Z,99287.43
2018-01-05T16:22:38.143Z,99277.33
2018-01-05T16:25:06.435Z,99280.50
2018-01-05T16:27:34.707Z,99284.28
2018-01-05T16:30:09.729Z,99292.63
2018-01-05T16:32:38.782Z,99288.98
2018-01-05T16:35:07.084Z,99291.39
2018-01-05T16:37:35.362Z,99297.50
2018-01-05T16:40:06.332Z,99290.48
2018-01-05T16:42:34.638Z,99292.14
2018-01-05T16:45:05.988Z,99293.78
2018-01-05T16:47:34.481Z,99297.20
2018-01-05T16:50:09.519Z,99295.23
2018-01-05T16:52:37.798Z,99293.85
2018-01-05T16:55:06.422Z,99294.92
2018-01-05T16:57:34.709Z,99297.80
2018-01-05T17:00:07.317Z,99293.77
2018-01-05T17:02:36.351Z,99293.53
2018-01-05T17:05:07.905Z,99293.48
2018-01-05T17:07:36.177Z,99301.69
2018-01-05T17:10:07.526Z,99298.23
2018-01-05T17:12:35.831Z,99298.88
2018-01-05T17:15:06.363Z,99301.92
2018-01-05T17:17:34.641Z,99300.11
2018-01-05T17:20:06.097Z,99295.67
2018-01-05T17:22:34.417Z,99293.00
2018-01-05T17:25:06.668Z,99301.92
2018-01-05T17:27:35.577Z,99310.61
2018-01-05T17:30:07.826Z,99322.13
2018-01-05T17:32:36.104Z,99324.58
2018-01-05T17:35:08.165Z,99318.29
2018-01-05T17:37:36.724Z,99307.63
2018-01-05T17:40:06.611Z,99304.16
2018-01-05T17:42:34.913Z,99313.58
2018-01-05T17:45:10.050Z,99315.64
2018-01-05T17:47:38.345Z,99321.83
2018-01-05T17:50:06.705Z,99319.44
2018-01-05T17:52:35.153Z,99323.25
2018-01-05T17:55:09.325Z,99327.06
2018-01-05T17:57:37.644Z,99323.74
2018-01-05T18:00:06.729Z,99320.44
2018-01-05T18:02:34.998Z,99330.92
2018-01-05T18:05:06.330Z,99333.06
2018-01-05T18:07:34.625Z,99341.24
2018-01-05T18:10:07.187Z,99345.46
2018-01-05T18:12:35.453Z,99349.59
2018-01-05T18:15:06.507Z,99350.48
2018-01-05T18:17:34.770Z,99343.55
2018-01-05T18:20:08.100Z,99340.63
2018-01-05T18:22:36.361Z,99344.17
2018-01-05T18:25:08.097Z,99345.70
2018-01-05T18:27:36.377Z,99342.63
2018-01-05T18:30:07.856Z,99333.16
2018-01-05T18:32:36.168Z,99344.30
2018-01-05T18:35:07.495Z,99342.07
2018-01-05T18:37:36.238Z,99350.66
2018-01-05T18:40:08.168Z,99344.80
2018-01-05T18:42:36.604Z,99349.91
2018-01-05T18:45:06.639Z,99355.31
2018-01-05T18:47:34.930Z,99361.85
2018-01-05T18:50:06.493Z,99354.82
2018-01-05T18:52:34.764Z,99363.08
2018-01-05T18:55:06.419Z,99365.22
2018-01-05T18:57:34.693Z,99373.17
2018-01-05T19:00:09.132Z,99369.69
2018-01-05T19:02:37.405Z,99374.98
2018-01-05T19:05:06.946Z,99374.91
2018-01-05T19:07:52.909Z,99382.49
2018-01-05T19:10:21.211Z,99377.46
2018-01-05T19:12:49.495Z,99379.62
2018-01-05T19:15:17.797Z,99381.50
2018-01-05T19:17:46.130Z,99386.06
2018-01-05T19:20:14.441Z,99385.34
2018-01-05T19:22:43.682Z,99391.44
2018-01-05T19:25:12.766Z,99396.15
2018-01-05T19:27:41.060Z,99407.54
2018-01-05T19:30:09.353Z,99424.99
2018-01-05T19:32:37.650Z,99454.28
2018-01-05T19:35:05.938Z,99475.84
2018-01-05T19:37:34.215Z,99469.33
2018-01-05T19:40:05.929Z,99458.98
2018-01-05T19:42:34.212Z,99470.75
2018-01-05T19:45:05.766Z,99472.97
2018-01-05T19:47:34.063Z,99472.36
2018-01-05T19:50:09.050Z,99459.81
2018-01-05T19:52:37.336Z,99461.50
2018-01-05T19:55:05.716Z,99478.77
2018-01-05T19:57:37.948Z,99477.45
2018-01-05T20:00:06.260Z,99477.09
2018-01-05T20:02:35.018Z,99476.70
2018-01-05T20:05:06.625Z,99478.91
2018-01-05T20:07:34.893Z,99485.42
2018-01-05T20:10:06.898Z,99495.23
2018-01-05T20:12:35.181Z,99492.92
2018-01-05T20:15:07.299Z,99501.80
2018-01-05T20:17:35.694Z,99501.49
2018-01-05T20:20:05.810Z,99501.22
2018-01-05T20:22:34.105Z,99508.95
2018-01-05T20:25:05.846Z,99508.77
2018-01-05T20:27:34.289Z,99516.49
2018-01-05T20:30:04.282Z,99510.05
2018-01-05T20:32:32.636Z,99516.14
2018-01-05T20:35:04.475Z,99519.17
2018-01-05T20:37:32.802Z,99522.52
2018-01-05T20:40:05.617Z,99526.80
2018-01-05T20:42:37.958Z,99529.78
2018-01-05T20:45:06.337Z,99526.11
2018-01-05T20:47:34.616Z,99534.53
2018-01-05T20:50:06.360Z,99530.64
2018-01-05T20:52:34.636Z,99527.14
2018-01-05T20:55:05.813Z,99534.80
2018-01-05T20:57:34.286Z,99533.57
2018-01-05T21:00:09.838Z,99534.11
2018-01-05T21:02:38.145Z,99539.06
2018-01-05T21:05:10.498Z,99547.20
2018-01-05T21:07:38.803Z,99546.75
2018-01-05T21:10:07.087Z,99546.27
2018-01-05T21:12:35.398Z,99554.52
2018-01-05T21:15:06.568Z,99549.90
2018-01-05T21:17:34.856Z,99551.77
2018-01-05T21:20:06.037Z,99552.45
2018-01-05T21:22:34.750Z,99564.58
2018-01-05T21:25:06.519Z,99568.59
2018-01-05T21:27:34.802Z,99567.84
2018-01-05T21:30:07.372Z,99568.31
2018-01-05T21:32:35.645Z,99579.75
2018-01-05T21:35:07.308Z,99591.21
2018-01-05T21:37:35.916Z,99596.09
2018-01-05T21:40:08.965Z,99599.45
2018-01-05T21:42:37.252Z,99596.73
2018-01-05T21:45:05.894Z,99605.16
2018-01-05T21:47:34.172Z,99606.72
2018-01-05T21:50:05.787Z,99611.34
2018-01-05T21:52:34.078Z,99610.75
2018-01-05T21:55:05.532Z,99625.16
2018-01-05T21:57:33.819Z,99632.08
2018-01-05T22:00:05.705Z,99632.42
2018-01-05T22:02:34.252Z,99637.67
2018-01-05T22:05:05.896Z,99642.09
2018-01-05T22:07:34.295Z,99645.17
2018-01-05T22:10:09.449Z,99655.40
2018-01-05T22:12:37.761Z,99655.34
2018-01-05T22:15:06.069Z,99661.61
2018-01-05T22:17:38.160Z,99671.35
2018-01-05T22:20:06.467Z,99668.84
2018-01-05T22:22:34.773Z,99674.53
2018-01-05T22:25:06.780Z,99685.25
2018-01-05T22:27:35.370Z,99678.39
2018-01-05T22:30:07.290Z,99681.80
2018-01-05T22:32:35.571Z,99678.12
2018-01-05T22:35:06.893Z,99673.68
2018-01-05T22:37:35.197Z,99667.45
2018-01-05T22:40:07.094Z,99676.12
2018-01-05T22:42:35.391Z,99670.92
2018-01-05T22:45:07.106Z,99686.17
2018-01-05T22:47:35.773Z,99685.25
2018-01-05T22:50:07.359Z,99681.85
2018-01-05T22:52:35.706Z,99678.95
2018-01-05T22:55:07.219Z,99689.70
2018-01-05T22:57:35.540Z,99694.08
2018-01-05T23:00:07.142Z,99698.28
2018-01-05T23:02:35.433Z,99706.67
2018-01-05T23:05:07.517Z,99707.51
2018-01-05T23:07:35.813Z,99711.52
2018-01-05T23:10:06.548Z,99707.44
2018-01-05T23:12:34.847Z,99715.80
2018-01-05T23:15:08.957Z,99726.08
2018-01-05T23:17:37.233Z,99724.30
2018-01-05T23:20:06.913Z,99740.09
2018-01-05T23:22:35.190Z,99740.78
2018-01-05T23:25:06.528Z,99747.79
2018-01-05T23:27:34.799Z,99755.27
2018-01-05T23:30:06.251Z,99758.95
2018-01-05T23:32:34.529Z,99755.30
2018-01-05T23:35:06.026Z,99764.31
2018-01-05T23:37:34.300Z,99758.84
2018-01-05T23:40:05.816Z,99767.97
2018-01-05T23:42:34.128Z,99781.34
2018-01-05T23:45:07.792Z,99780.09
2018-01-05T23:47:36.104Z,99787.67
2018-01-05T23:50:07.609Z,99784.55
2018-01-05T23:52:35.890Z,99784.85
2018-01-05T23:55:07.967Z,99790.64
2018-01-05T23:57:36.407Z,99795.31
